Terminal Aerodrome Forecast
Issued by NWS

Home | Current Version | Previous Version | Text Only | Print | Product List | Glossary On
Versions: 1 2 3 4 5 6 7 8 9 10 11 12 13 14 15 16 17 18 19 20 21 22
000
FTUS43 KICT 180520
TAFHUT
TAF
KHUT 180520Z 1806/1906 20005KT P6SM BKN200
     FM181300 18006KT P6SM -RA BKN080 OVC150
     FM181800 19012KT P6SM SCT050
     FM190400 16008KT P6SM OVC015=

USA.gov is the U.S. government's official web portal to all federal, state and local government web resources and services.